createdAt,value
2018-09-10T00:00:56.863Z,17.37
2018-09-10T00:01:56.761Z,17.37
2018-09-10T00:02:56.703Z,17.31
2018-09-10T00:03:56.963Z,17.31
2018-09-10T00:04:56.586Z,17.31
2018-09-10T00:05:56.621Z,17.31
2018-09-10T00:06:56.594Z,17.31
2018-09-10T00:07:56.955Z,17.25
2018-09-10T00:08:56.593Z,17.25
2018-09-10T00:09:56.625Z,17.19
2018-09-10T00:10:56.696Z,17.19
2018-09-10T00:11:56.603Z,17.19
2018-09-10T00:12:56.581Z,17.12
2018-09-10T00:13:56.589Z,17.12
2018-09-10T00:14:56.643Z,17.06
2018-09-10T00:15:56.593Z,17.06
2018-09-10T00:16:56.636Z,17.06
2018-09-10T00:17:56.663Z,17
2018-09-10T00:18:56.623Z,17
2018-09-10T00:19:56.571Z,17
2018-09-10T00:20:56.560Z,16.94
2018-09-10T00:21:56.577Z,16.94
2018-09-10T00:22:56.589Z,16.87
2018-09-10T00:23:56.594Z,16.87
2018-09-10T00:24:56.581Z,16.87
2018-09-10T00:25:56.675Z,16.87
2018-09-10T00:26:56.586Z,16.87
2018-09-10T00:27:56.680Z,16.81
2018-09-10T00:28:56.883Z,16.81
2018-09-10T00:29:56.597Z,16.87
2018-09-10T00:30:56.658Z,16.81
2018-09-10T00:31:56.620Z,16.81
2018-09-10T00:32:56.647Z,16.75
2018-09-10T00:33:56.637Z,16.75
2018-09-10T00:34:57.243Z,16.75
2018-09-10T00:35:56.700Z,16.75
2018-09-10T00:36:56.811Z,16.81
2018-09-10T00:37:56.657Z,16.75
2018-09-10T00:38:56.670Z,16.69
2018-09-10T00:39:56.698Z,16.75
2018-09-10T00:40:56.728Z,16.75
2018-09-10T00:41:56.837Z,16.69
2018-09-10T00:42:56.699Z,16.75
2018-09-10T00:43:56.631Z,16.69
2018-09-10T00:44:56.677Z,16.75
2018-09-10T00:45:56.573Z,16.69
2018-09-10T00:46:56.599Z,16.69
2018-09-10T00:47:56.684Z,16.69
2018-09-10T00:48:56.936Z,16.62
2018-09-10T00:49:56.622Z,16.69
2018-09-10T00:50:56.597Z,16.62
2018-09-10T00:51:56.662Z,16.62
2018-09-10T00:52:56.661Z,16.62
2018-09-10T00:53:56.675Z,16.56
2018-09-10T00:54:57.062Z,16.62
2018-09-10T00:55:56.691Z,16.62
2018-09-10T00:56:56.641Z,16.56
2018-09-10T00:57:56.598Z,16.62
2018-09-10T00:58:56.816Z,16.5
2018-09-10T00:59:56.808Z,16.56
2018-09-10T01:00:56.645Z,16.5
2018-09-10T01:01:56.722Z,16.5
2018-09-10T01:02:56.621Z,16.5
2018-09-10T01:03:56.694Z,16.44
2018-09-10T01:04:56.676Z,16.44
2018-09-10T01:05:56.640Z,16.37
2018-09-10T01:06:56.627Z,16.37
2018-09-10T01:07:56.714Z,16.37
2018-09-10T01:08:56.612Z,16.37
2018-09-10T01:09:56.625Z,16.37
2018-09-10T01:10:56.615Z,16.37
2018-09-10T01:11:56.610Z,16.37
2018-09-10T01:12:56.925Z,16.37
2018-09-10T01:13:56.680Z,16.31
2018-09-10T01:14:57.010Z,16.31
2018-09-10T01:15:56.795Z,16.31
2018-09-10T01:16:56.754Z,16.31
2018-09-10T01:17:57.338Z,16.31
2018-09-10T01:18:56.638Z,16.25
2018-09-10T01:19:56.722Z,16.25
2018-09-10T01:20:56.626Z,16.25
2018-09-10T01:21:56.765Z,16.25
2018-09-10T01:22:56.792Z,16.25
2018-09-10T01:23:56.648Z,16.19
2018-09-10T01:24:56.690Z,16.25
2018-09-10T01:25:56.643Z,16.19
2018-09-10T01:26:56.990Z,16.19
2018-09-10T01:27:56.667Z,16.19
2018-09-10T01:28:56.729Z,16.12
2018-09-10T01:29:56.652Z,16.12
2018-09-10T01:30:56.650Z,16.12
2018-09-10T01:31:56.730Z,16.12
2018-09-10T01:32:56.652Z,16.12
2018-09-10T01:33:56.644Z,16.12
2018-09-10T01:34:56.636Z,16.06
2018-09-10T01:35:56.682Z,16.12
2018-09-10T01:36:56.728Z,16.06
2018-09-10T01:37:56.657Z,16.06
2018-09-10T01:38:56.633Z,16
2018-09-10T01:39:56.668Z,16
2018-09-10T01:40:56.625Z,16.06
2018-09-10T01:41:56.648Z,16
2018-09-10T01:42:56.647Z,16
2018-09-10T01:43:56.691Z,16
2018-09-10T01:44:56.718Z,16
2018-09-10T01:45:56.673Z,16
2018-09-10T01:46:56.617Z,16
2018-09-10T01:47:56.632Z,16
2018-09-10T01:48:56.674Z,16
2018-09-10T01:49:56.707Z,15.94
2018-09-10T01:50:56.709Z,15.94
2018-09-10T01:51:56.654Z,15.94
2018-09-10T01:52:56.705Z,15.94
2018-09-10T01:53:56.668Z,15.94
2018-09-10T01:54:56.700Z,15.94
2018-09-10T01:55:56.639Z,15.94
2018-09-10T01:56:56.648Z,15.88
2018-09-10T01:57:56.996Z,15.88
2018-09-10T01:58:56.818Z,15.88
2018-09-10T01:59:56.652Z,15.81
2018-09-10T02:00:56.646Z,15.88
2018-09-10T02:01:56.650Z,15.81
2018-09-10T02:02:56.654Z,15.81
2018-09-10T02:03:56.715Z,15.81
2018-09-10T02:04:56.722Z,15.75
2018-09-10T02:05:56.869Z,15.81
2018-09-10T02:06:56.651Z,15.75
2018-09-10T02:07:56.785Z,15.81
2018-09-10T02:08:56.649Z,15.75
2018-09-10T02:09:56.713Z,15.75
2018-09-10T02:10:56.757Z,15.75
2018-09-10T02:11:56.701Z,15.69
2018-09-10T02:12:56.839Z,15.75
2018-09-10T02:13:56.683Z,15.75
2018-09-10T02:14:57.013Z,15.69
2018-09-10T02:15:56.782Z,15.69
2018-09-10T02:16:57.230Z,15.63
2018-09-10T02:17:56.653Z,15.63
2018-09-10T02:18:56.874Z,15.56
2018-09-10T02:19:56.871Z,15.56
2018-09-10T02:20:56.755Z,15.56
2018-09-10T02:21:56.696Z,15.56
2018-09-10T02:22:56.641Z,15.56
2018-09-10T02:23:56.666Z,15.56
2018-09-10T02:24:56.673Z,15.5
2018-09-10T02:25:56.687Z,15.56
2018-09-10T02:26:56.855Z,15.5
2018-09-10T02:27:56.723Z,15.5
2018-09-10T02:28:56.724Z,15.5
2018-09-10T02:29:57.109Z,15.5
2018-09-10T02:30:56.830Z,15.5
2018-09-10T02:31:56.772Z,15.5
2018-09-10T02:32:56.814Z,15.5
2018-09-10T02:33:56.869Z,15.5
2018-09-10T02:34:56.774Z,15.56
2018-09-10T02:35:57.157Z,15.56
2018-09-10T02:36:56.744Z,15.56
2018-09-10T02:37:56.665Z,15.56
2018-09-10T02:38:56.829Z,15.56
2018-09-10T02:39:57.552Z,15.5
2018-09-10T02:40:57.095Z,15.5
2018-09-10T02:41:56.692Z,15.5
2018-09-10T02:42:56.771Z,15.5
2018-09-10T02:43:56.707Z,15.5
2018-09-10T02:44:57.072Z,15.44
2018-09-10T02:45:56.745Z,15.44
2018-09-10T02:46:56.692Z,15.44
2018-09-10T02:47:57.005Z,15.44
2018-09-10T02:48:56.671Z,15.44
2018-09-10T02:49:56.667Z,15.44
2018-09-10T02:50:56.912Z,15.44
2018-09-10T02:51:56.697Z,15.44
2018-09-10T02:52:56.761Z,15.44
2018-09-10T02:53:56.727Z,15.44
2018-09-10T02:54:57.035Z,15.38
2018-09-10T02:55:56.674Z,15.44
2018-09-10T02:56:56.821Z,15.38
2018-09-10T02:57:56.810Z,15.38
2018-09-10T02:58:56.691Z,15.38
2018-09-10T02:59:56.660Z,15.38
2018-09-10T03:00:56.702Z,15.38
2018-09-10T03:01:56.680Z,15.38
2018-09-10T03:02:56.699Z,15.31
2018-09-10T03:03:56.679Z,15.38
2018-09-10T03:04:56.713Z,15.31
2018-09-10T03:05:56.682Z,15.31
2018-09-10T03:06:56.821Z,15.31
2018-09-10T03:07:56.724Z,15.31
2018-09-10T03:08:56.703Z,15.31
2018-09-10T03:09:56.730Z,15.25
2018-09-10T03:10:56.796Z,15.31
2018-09-10T03:11:56.742Z,15.31
2018-09-10T03:12:56.723Z,15.31
2018-09-10T03:13:56.732Z,15.25
2018-09-10T03:14:56.708Z,15.25
2018-09-10T03:15:56.729Z,15.25
2018-09-10T03:16:57.348Z,15.31
2018-09-10T03:17:57.072Z,15.25
2018-09-10T03:18:56.814Z,15.25
2018-09-10T03:19:57.148Z,15.25
2018-09-10T03:20:56.807Z,15.25
2018-09-10T03:21:56.769Z,15.19
2018-09-10T03:22:56.826Z,15.19
2018-09-10T03:23:57.259Z,15.19
2018-09-10T03:24:56.683Z,15.19
2018-09-10T03:25:57.499Z,15.25
2018-09-10T03:26:56.838Z,15.19
2018-09-10T03:27:57.019Z,15.19
2018-09-10T03:28:56.851Z,15.19
2018-09-10T03:29:56.704Z,15.13
2018-09-10T03:30:56.729Z,15.19
2018-09-10T03:31:57.241Z,15.19
2018-09-10T03:32:56.798Z,15.13
2018-09-10T03:33:56.803Z,15.13
2018-09-10T03:34:57.054Z,15.13
2018-09-10T03:35:56.926Z,15.13
2018-09-10T03:36:56.721Z,15.13
2018-09-10T03:37:56.704Z,15.06
2018-09-10T03:38:56.757Z,15.06
2018-09-10T03:39:56.733Z,15
2018-09-10T03:40:56.987Z,15.06
2018-09-10T03:41:56.755Z,15.06
2018-09-10T03:42:56.692Z,15.06
2018-09-10T03:43:56.727Z,15.06
2018-09-10T03:44:56.748Z,15
2018-09-10T03:45:57.147Z,15.06
2018-09-10T03:46:56.708Z,15
2018-09-10T03:47:56.755Z,15
2018-09-10T03:48:56.815Z,15
2018-09-10T03:49:56.846Z,15
2018-09-10T03:50:56.702Z,15.06
2018-09-10T03:51:56.755Z,15.06
2018-09-10T03:52:57.038Z,15.06
2018-09-10T03:53:57.381Z,15.06
2018-09-10T03:54:56.919Z,15.06
2018-09-10T03:55:56.735Z,15.06
2018-09-10T03:56:56.727Z,15.06
2018-09-10T03:57:56.917Z,15.06
2018-09-10T03:58:56.803Z,15
2018-09-10T03:59:56.734Z,15
2018-09-10T04:00:56.992Z,15
2018-09-10T04:01:56.766Z,14.87
2018-09-10T04:02:56.772Z,14.94
2018-09-10T04:03:58.181Z,14.94
2018-09-10T04:04:56.746Z,14.94
2018-09-10T04:05:57.145Z,14.94
2018-09-10T04:06:56.722Z,14.87
2018-09-10T04:07:56.730Z,14.87
2018-09-10T04:08:56.869Z,14.87
2018-09-10T04:09:56.745Z,14.87
2018-09-10T04:10:56.832Z,14.94
2018-09-10T04:11:56.754Z,14.87
2018-09-10T04:12:57.259Z,14.87
2018-09-10T04:13:56.964Z,14.87
2018-09-10T04:14:56.775Z,14.87
2018-09-10T04:15:56.747Z,14.87
2018-09-10T04:16:56.953Z,14.87
2018-09-10T04:17:56.860Z,14.81
2018-09-10T04:18:56.849Z,14.87
2018-09-10T04:19:56.956Z,14.81
2018-09-10T04:20:56.727Z,14.87
2018-09-10T04:21:56.927Z,14.81
2018-09-10T04:22:56.747Z,14.75
2018-09-10T04:23:56.795Z,14.75
2018-09-10T04:24:56.738Z,14.75
2018-09-10T04:25:57.165Z,14.75
2018-09-10T04:26:56.833Z,14.75
2018-09-10T04:27:56.761Z,14.69
2018-09-10T04:28:56.851Z,14.69
2018-09-10T04:29:56.768Z,14.63
2018-09-10T04:30:56.772Z,14.63
2018-09-10T04:31:56.820Z,14.63
2018-09-10T04:32:56.815Z,14.63
2018-09-10T04:33:56.762Z,14.56
2018-09-10T04:34:57.149Z,14.63
2018-09-10T04:35:57.248Z,14.56
2018-09-10T04:36:57.139Z,14.56
2018-09-10T04:37:56.721Z,14.56
2018-09-10T04:38:56.739Z,14.56
2018-09-10T04:39:56.775Z,14.56
2018-09-10T04:40:56.741Z,14.56
2018-09-10T04:41:56.788Z,14.5
2018-09-10T04:42:56.774Z,14.56
2018-09-10T04:43:56.784Z,14.5
2018-09-10T04:44:56.754Z,14.5
2018-09-10T04:45:57.228Z,14.5
2018-09-10T04:46:56.777Z,14.5
2018-09-10T04:47:57.126Z,14.5
2018-09-10T04:48:56.751Z,14.5
2018-09-10T04:49:56.895Z,14.5
2018-09-10T04:50:56.822Z,14.5
2018-09-10T04:51:56.768Z,14.5
2018-09-10T04:52:56.718Z,14.5
2018-09-10T04:53:56.872Z,14.5
2018-09-10T04:54:56.784Z,14.5
2018-09-10T04:55:56.725Z,14.5
2018-09-10T04:56:56.794Z,14.5
2018-09-10T04:57:57.147Z,14.5
2018-09-10T04:58:56.742Z,14.44
2018-09-10T04:59:56.796Z,14.44
2018-09-10T05:00:56.748Z,14.44
2018-09-10T05:01:56.842Z,14.44
2018-09-10T05:02:56.733Z,14.44
2018-09-10T05:03:56.947Z,14.44
2018-09-10T05:04:56.778Z,14.44
2018-09-10T05:05:56.748Z,14.44
2018-09-10T05:06:56.855Z,14.38
2018-09-10T05:07:57.178Z,14.44
2018-09-10T05:08:57.209Z,14.44
2018-09-10T05:09:57.519Z,14.44
2018-09-10T05:10:56.800Z,14.44
2018-09-10T05:11:56.725Z,14.38
2018-09-10T05:13:04.027Z,14.44
2018-09-10T05:13:56.748Z,14.44
2018-09-10T05:14:56.735Z,14.44
2018-09-10T05:15:56.755Z,14.44
2018-09-10T05:16:56.826Z,14.44
2018-09-10T05:17:56.805Z,14.44
2018-09-10T05:18:57.132Z,14.44
2018-09-10T05:19:56.841Z,14.44
2018-09-10T05:20:56.775Z,14.44
2018-09-10T05:21:57.507Z,14.38
2018-09-10T05:22:56.769Z,14.44
2018-09-10T05:23:57.064Z,14.44
2018-09-10T05:24:56.911Z,14.44
2018-09-10T05:25:56.827Z,14.44
2018-09-10T05:26:57.228Z,14.44
2018-09-10T05:27:57.013Z,14.5
2018-09-10T05:28:57.119Z,14.5
2018-09-10T05:29:56.788Z,14.5
2018-09-10T05:30:56.782Z,14.5
2018-09-10T05:31:56.812Z,14.44
2018-09-10T05:32:56.900Z,14.5
2018-09-10T05:33:56.781Z,14.5
2018-09-10T05:34:57.150Z,14.5
2018-09-10T05:35:56.862Z,14.5
2018-09-10T05:36:56.774Z,14.5
2018-09-10T05:37:56.769Z,14.56
2018-09-10T05:38:56.828Z,14.5
2018-09-10T05:39:57.402Z,14.5
2018-09-10T05:40:56.815Z,14.5
2018-09-10T05:41:56.796Z,14.56
2018-09-10T05:42:56.899Z,14.56
2018-09-10T05:43:56.791Z,14.56
2018-09-10T05:44:56.862Z,14.63
2018-09-10T05:45:56.762Z,14.63
2018-09-10T05:46:57.152Z,14.69
2018-09-10T05:47:56.935Z,14.69
2018-09-10T05:48:56.800Z,14.69
2018-09-10T05:49:56.835Z,14.75
2018-09-10T05:50:56.991Z,14.75
2018-09-10T05:51:56.865Z,14.75
2018-09-10T05:52:56.811Z,14.75
2018-09-10T05:53:56.924Z,14.75
2018-09-10T05:54:56.850Z,14.75
2018-09-10T05:55:56.856Z,14.75
2018-09-10T05:56:56.788Z,14.81
2018-09-10T05:57:56.837Z,14.81
2018-09-10T05:58:56.834Z,14.81
2018-09-10T05:59:56.818Z,14.87
2018-09-10T06:00:57.248Z,14.87
2018-09-10T06:01:56.762Z,14.94
2018-09-10T06:02:56.912Z,14.87
2018-09-10T06:03:56.973Z,14.94
2018-09-10T06:04:56.803Z,14.94
2018-09-10T06:05:56.865Z,14.94
2018-09-10T06:06:56.896Z,14.94
2018-09-10T06:07:56.867Z,15
2018-09-10T06:08:56.932Z,15
2018-09-10T06:09:56.908Z,15.06
2018-09-10T06:10:56.896Z,15.06
2018-09-10T06:11:56.919Z,15.06
2018-09-10T06:12:57.198Z,15.13
2018-09-10T06:13:56.960Z,15.13
2018-09-10T06:14:57.059Z,15.13
2018-09-10T06:15:56.989Z,15.19
2018-09-10T06:16:56.976Z,15.19
2018-09-10T06:17:56.914Z,15.25
2018-09-10T06:18:56.829Z,15.25
2018-09-10T06:19:56.822Z,15.31
2018-09-10T06:20:56.816Z,15.31
2018-09-10T06:21:56.787Z,15.38
2018-09-10T06:22:56.868Z,15.38
2018-09-10T06:23:56.913Z,15.38
2018-09-10T06:24:56.830Z,15.44
2018-09-10T06:25:56.879Z,15.44
2018-09-10T06:26:56.896Z,15.5
2018-09-10T06:27:56.817Z,15.5
2018-09-10T06:28:56.815Z,15.5
2018-09-10T06:29:56.788Z,15.5
2018-09-10T06:30:57.219Z,15.56
2018-09-10T06:31:57.235Z,15.5
2018-09-10T06:32:57.121Z,15.5
2018-09-10T06:33:57.012Z,15.56
2018-09-10T06:34:57.051Z,15.56
2018-09-10T06:35:56.809Z,15.56
2018-09-10T06:36:57.568Z,15.63
2018-09-10T06:37:56.784Z,15.63
2018-09-10T06:38:57.179Z,15.69
2018-09-10T06:39:56.892Z,15.75
2018-09-10T06:40:56.907Z,15.75
2018-09-10T06:41:57.184Z,15.75
2018-09-10T06:42:56.881Z,15.81
2018-09-10T06:43:57.139Z,15.81
2018-09-10T06:44:56.812Z,15.88
2018-09-10T06:45:56.883Z,15.88
2018-09-10T06:46:57.235Z,15.94
2018-09-10T06:47:57.241Z,15.94
2018-09-10T06:48:57.174Z,16
2018-09-10T06:49:56.847Z,16.06
2018-09-10T06:50:56.812Z,16.06
2018-09-10T06:51:56.823Z,16.12
2018-09-10T06:52:56.878Z,16.12
2018-09-10T06:53:56.872Z,16.12
2018-09-10T06:55:00.196Z,16.25
2018-09-10T06:55:56.846Z,16.19
2018-09-10T06:56:56.813Z,16.25
2018-09-10T06:57:57.121Z,16.31
2018-09-10T06:58:56.837Z,16.25
2018-09-10T06:59:56.830Z,16.31
2018-09-10T07:00:57.125Z,16.37
2018-09-10T07:01:56.854Z,16.44
2018-09-10T07:02:56.817Z,16.44
2018-09-10T07:03:56.821Z,16.5
2018-09-10T07:04:57.120Z,16.56
2018-09-10T07:05:56.969Z,16.56
2018-09-10T07:06:56.882Z,16.56
2018-09-10T07:07:56.970Z,16.62
2018-09-10T07:08:56.806Z,16.62
2018-09-10T07:09:56.840Z,16.69
2018-09-10T07:10:57.305Z,16.75
2018-09-10T07:11:57.023Z,16.75
2018-09-10T07:12:57.131Z,16.81
2018-09-10T07:13:56.861Z,16.81
2018-09-10T07:14:56.840Z,16.87
2018-09-10T07:15:56.903Z,16.87
2018-09-10T07:16:56.960Z,16.94
2018-09-10T07:17:56.891Z,16.94
2018-09-10T07:18:57.306Z,16.94
2018-09-10T07:19:56.809Z,17.06
2018-09-10T07:20:56.864Z,17.06
2018-09-10T07:21:56.878Z,17.12
2018-09-10T07:22:57.164Z,17.12
2018-09-10T07:23:56.830Z,17.12
2018-09-10T07:24:56.816Z,17.19
2018-09-10T07:25:57.405Z,17.19
2018-09-10T07:26:57.182Z,17.25
2018-09-10T07:27:57.106Z,17.31
2018-09-10T07:28:57.375Z,17.37
2018-09-10T07:29:56.905Z,17.37
2018-09-10T07:30:57.189Z,17.44
2018-09-10T07:31:57.180Z,17.44
2018-09-10T07:32:56.918Z,17.5
2018-09-10T07:33:57.073Z,17.5
2018-09-10T07:34:56.838Z,17.56
2018-09-10T07:35:56.850Z,17.56
2018-09-10T07:36:56.882Z,17.62
2018-09-10T07:37:56.908Z,17.69
2018-09-10T07:38:56.908Z,17.69
2018-09-10T07:39:56.889Z,17.75
2018-09-10T07:40:56.990Z,17.75
2018-09-10T07:41:56.860Z,17.81
2018-09-10T07:42:56.901Z,17.87
2018-09-10T07:43:58.471Z,17.87
2018-09-10T07:44:56.857Z,17.94
2018-09-10T07:45:56.978Z,17.94
2018-09-10T07:46:56.936Z,17.94
2018-09-10T07:47:56.856Z,18
2018-09-10T07:48:57.586Z,18
2018-09-10T07:49:56.887Z,18
2018-09-10T07:50:56.882Z,18.06
2018-09-10T07:51:56.897Z,18.06
2018-09-10T07:52:57.100Z,18.06
2018-09-10T07:53:56.882Z,18.12
2018-09-10T07:54:56.922Z,18.12
2018-09-10T07:55:57.197Z,18.12
2018-09-10T07:56:56.881Z,18.19
2018-09-10T07:57:56.880Z,18.19
2018-09-10T07:58:57.031Z,18.19
2018-09-10T07:59:57.336Z,18.25
2018-09-10T08:00:56.850Z,18.25
2018-09-10T08:01:56.882Z,18.25
2018-09-10T08:02:57.383Z,18.25
2018-09-10T08:03:57.286Z,18.31
2018-09-10T08:04:56.854Z,18.31
2018-09-10T08:05:56.866Z,18.37
2018-09-10T08:06:56.916Z,18.37
2018-09-10T08:07:56.875Z,18.37
2018-09-10T08:08:57.175Z,18.44
2018-09-10T08:09:56.932Z,18.44
2018-09-10T08:10:57.185Z,18.44
2018-09-10T08:11:57.518Z,18.44
2018-09-10T08:12:56.879Z,18.44
2018-09-10T08:13:56.899Z,18.5
2018-09-10T08:14:56.871Z,18.5
2018-09-10T08:15:57.081Z,18.56
2018-09-10T08:16:56.920Z,18.56
2018-09-10T08:17:56.883Z,18.62
2018-09-10T08:18:56.869Z,18.62
2018-09-10T08:19:57.145Z,18.62
2018-09-10T08:20:57.152Z,18.62
2018-09-10T08:21:56.867Z,18.62
2018-09-10T08:22:57.122Z,18.69
2018-09-10T08:23:57.057Z,18.69
2018-09-10T08:24:56.979Z,18.75
2018-09-10T08:25:56.938Z,18.81
2018-09-10T08:26:56.915Z,18.87
2018-09-10T08:27:56.876Z,18.94
2018-09-10T08:28:56.922Z,19
2018-09-10T08:29:56.844Z,19.06
2018-09-10T08:30:56.913Z,19.12
2018-09-10T08:31:57.130Z,19.19
2018-09-10T08:32:56.967Z,19.25
2018-09-10T08:33:57.602Z,19.25
2018-09-10T08:34:56.956Z,19.37
2018-09-10T08:35:57.084Z,19.37
2018-09-10T08:36:57.251Z,19.44
2018-09-10T08:37:56.916Z,19.5
2018-09-10T08:38:56.871Z,19.5
2018-09-10T08:39:56.916Z,19.56
2018-09-10T08:40:56.870Z,19.62
2018-09-10T08:41:56.874Z,19.62
2018-09-10T08:42:57.547Z,19.69
2018-09-10T08:43:56.889Z,19.69
2018-09-10T08:44:57.010Z,19.69
2018-09-10T08:45:57.227Z,19.75
2018-09-10T08:46:56.926Z,19.75
2018-09-10T08:47:56.866Z,19.81
2018-09-10T08:48:56.978Z,19.87
2018-09-10T08:49:56.879Z,19.87
2018-09-10T08:50:56.908Z,20
2018-09-10T08:51:57.128Z,20
2018-09-10T08:52:57.069Z,20.06
2018-09-10T08:53:57.608Z,20.12
2018-09-10T08:55:00.725Z,20.12
2018-09-10T08:55:59.657Z,20.19
2018-09-10T08:56:56.913Z,20.25
2018-09-10T08:57:56.909Z,20.25
2018-09-10T08:58:56.945Z,20.31
2018-09-10T08:59:57.072Z,20.37
2018-09-10T09:00:57.119Z,20.37
2018-09-10T09:01:57.560Z,20.37
2018-09-10T09:02:57.076Z,20.37
2018-09-10T09:03:56.902Z,20.44
2018-09-10T09:04:56.979Z,20.5
2018-09-10T09:05:57.441Z,20.5
2018-09-10T09:06:56.907Z,20.5
2018-09-10T09:07:57.561Z,20.5
2018-09-10T09:08:57.286Z,20.5
2018-09-10T09:09:56.891Z,20.56
2018-09-10T09:10:56.906Z,20.56
2018-09-10T09:11:56.975Z,20.62
2018-09-10T09:12:56.924Z,20.62
2018-09-10T09:13:57.158Z,20.62
2018-09-10T09:14:57.131Z,20.62
2018-09-10T09:15:56.996Z,20.62
2018-09-10T09:16:57.186Z,20.69
2018-09-10T09:17:56.943Z,20.69
2018-09-10T09:18:56.888Z,20.69
2018-09-10T09:19:57.075Z,20.75
2018-09-10T09:20:57.199Z,20.75
2018-09-10T09:21:57.301Z,20.81
2018-09-10T09:22:56.918Z,20.81
2018-09-10T09:23:56.955Z,20.75
2018-09-10T09:24:56.971Z,20.81
2018-09-10T09:25:56.927Z,20.88
2018-09-10T09:26:56.931Z,20.88
2018-09-10T09:27:58.580Z,20.81
2018-09-10T09:28:57.024Z,20.88
2018-09-10T09:29:57.897Z,20.94
2018-09-10T09:30:56.966Z,21
2018-09-10T09:31:57.138Z,21
2018-09-10T09:32:56.911Z,20.94
2018-09-10T09:33:57.087Z,21
2018-09-10T09:34:57.055Z,21
2018-09-10T09:35:56.962Z,21
2018-09-10T09:36:56.924Z,21.06
2018-09-10T09:37:57.279Z,21.06
2018-09-10T09:38:57.005Z,21.06
2018-09-10T09:39:56.936Z,21.12
2018-09-10T09:40:57.161Z,21.19
2018-09-10T09:41:57.092Z,21.19
2018-09-10T09:42:57.939Z,21.25
2018-09-10T09:43:57.153Z,21.19
2018-09-10T09:44:57.263Z,21.25
2018-09-10T09:45:57.033Z,21.25
2018-09-10T09:47:03.390Z,21.31
2018-09-10T09:47:56.920Z,21.31
2018-09-10T09:48:58.490Z,21.31
2018-09-10T09:49:57.135Z,21.37
2018-09-10T09:50:57.634Z,21.44
2018-09-10T09:51:57.005Z,21.5
2018-09-10T09:52:56.927Z,21.5
2018-09-10T09:53:56.932Z,21.5
2018-09-10T09:54:56.939Z,21.56
2018-09-10T09:55:57.226Z,21.56
2018-09-10T09:56:56.930Z,21.62
2018-09-10T09:57:57.018Z,21.69
2018-09-10T09:59:00.082Z,21.75
2018-09-10T09:59:57.060Z,21.75
2018-09-10T10:01:01.340Z,21.81
2018-09-10T10:01:57.140Z,21.81
2018-09-10T10:02:57.322Z,21.81
2018-09-10T10:03:57.511Z,21.94
2018-09-10T10:04:57.012Z,21.94
2018-09-10T10:05:57.283Z,22
2018-09-10T10:06:58.356Z,22
2018-09-10T10:07:57.005Z,22.06
2018-09-10T10:08:57.137Z,22.13
2018-09-10T10:09:59.759Z,22.19
2018-09-10T10:10:59.296Z,22.19
2018-09-10T10:11:57.443Z,22.25
2018-09-10T10:12:58.822Z,22.31
2018-09-10T10:13:57.153Z,22.44
2018-09-10T10:14:57.123Z,22.5
2018-09-10T10:15:56.963Z,22.56
2018-09-10T10:16:56.998Z,22.62
2018-09-10T10:17:56.946Z,22.69
2018-09-10T10:18:56.953Z,22.69
2018-09-10T10:19:56.962Z,22.81
2018-09-10T10:20:56.963Z,22.87
2018-09-10T10:21:57.339Z,22.94
2018-09-10T10:22:56.988Z,22.94
2018-09-10T10:23:57.143Z,23
2018-09-10T10:24:57.012Z,23.06
2018-09-10T10:25:57.032Z,23.12
2018-09-10T10:26:57.105Z,23.12
2018-09-10T10:27:57.007Z,23.12
2018-09-10T10:28:57.058Z,23.19
2018-09-10T10:29:57.074Z,23.25
2018-09-10T10:30:57.066Z,23.25
2018-09-10T10:31:56.986Z,23.31
2018-09-10T10:32:57.057Z,23.31
2018-09-10T10:33:57.031Z,23.38
2018-09-10T10:34:57.022Z,23.44
2018-09-10T10:35:57.776Z,23.56
2018-09-10T10:36:57.300Z,23.62
2018-09-10T10:37:56.972Z,23.62
2018-09-10T10:39:01.281Z,23.69
2018-09-10T10:39:57.163Z,23.75
2018-09-10T10:40:56.960Z,23.69
2018-09-10T10:41:57.057Z,23.81
2018-09-10T10:42:59.213Z,23.81
2018-09-10T10:43:57.115Z,23.75
2018-09-10T10:44:56.977Z,23.81
2018-09-10T10:45:57.095Z,23.87
2018-09-10T10:47:00.755Z,23.87
2018-09-10T10:47:57.085Z,23.94
2018-09-10T10:48:57.099Z,23.87
2018-09-10T10:50:06.105Z,23.94
2018-09-10T10:50:59.474Z,23.94
2018-09-10T10:51:57.616Z,23.94
2018-09-10T10:52:57.941Z,23.87
2018-09-10T10:53:58.069Z,23.94
2018-09-10T10:54:57.609Z,23.94
2018-09-10T10:55:57.085Z,23.94
2018-09-10T10:56:57.085Z,24
2018-09-10T10:57:57.630Z,23.94
2018-09-10T10:58:57.094Z,24
2018-09-10T10:59:57.009Z,24.06
2018-09-10T11:00:57.109Z,24.06
2018-09-10T11:01:57.202Z,24.06
2018-09-10T11:02:57.131Z,24.06
2018-09-10T11:03:57.252Z,24.06
2018-09-10T11:04:57.311Z,24.12
2018-09-10T11:05:57.078Z,24.06
2018-09-10T11:06:57.026Z,24.06
2018-09-10T11:07:56.971Z,24.12
2018-09-10T11:08:57.263Z,24.19
2018-09-10T11:09:57.628Z,24.19
2018-09-10T11:10:57.336Z,24.12
2018-09-10T11:11:57.035Z,24.12
2018-09-10T11:12:57.253Z,24.12
2018-09-10T11:13:57.858Z,24.19
2018-09-10T11:14:57.419Z,24.19
2018-09-10T11:15:57.063Z,24.19
2018-09-10T11:16:57.034Z,24.31
2018-09-10T11:17:57.099Z,24.25
2018-09-10T11:18:57.184Z,24.31
2018-09-10T11:19:57.014Z,24.31
2018-09-10T11:20:57.173Z,24.37
2018-09-10T11:21:57.129Z,24.44
2018-09-10T11:22:57.017Z,24.5
2018-09-10T11:23:57.183Z,24.5
2018-09-10T11:24:57.087Z,24.5
2018-09-10T11:25:57.556Z,24.56
2018-09-10T11:26:57.148Z,24.5
2018-09-10T11:27:57.164Z,24.56
2018-09-10T11:28:57.124Z,24.56
2018-09-10T11:29:57.143Z,24.56
2018-09-10T11:30:57.029Z,24.63
2018-09-10T11:31:57.134Z,24.63
2018-09-10T11:32:57.568Z,24.63
2018-09-10T11:33:57.108Z,24.69
2018-09-10T11:34:57.168Z,24.75
2018-09-10T11:35:57.133Z,24.81
2018-09-10T11:36:57.053Z,24.87
2018-09-10T11:37:57.291Z,24.87
2018-09-10T11:38:57.028Z,24.94
2018-09-10T11:39:57.012Z,24.94
2018-09-10T11:40:57.053Z,25
2018-09-10T11:41:57.214Z,25
2018-09-10T11:42:57.071Z,25.06
2018-09-10T11:43:57.123Z,25.06
2018-09-10T11:44:57.370Z,25.12
2018-09-10T11:45:57.147Z,25.19
2018-09-10T11:46:57.043Z,25.12
2018-09-10T11:47:57.195Z,25.12
2018-09-10T11:48:57.411Z,25.12
2018-09-10T11:49:57.052Z,25.12
2018-09-10T11:50:57.033Z,25.19
2018-09-10T11:51:57.024Z,25.19
2018-09-10T11:52:57.159Z,25.19
2018-09-10T11:53:57.599Z,25.25
2018-09-10T11:54:57.080Z,25.25
2018-09-10T11:55:57.137Z,25.31
2018-09-10T11:56:57.012Z,25.31
2018-09-10T11:57:57.186Z,25.44
2018-09-10T11:58:57.203Z,25.44
2018-09-10T11:59:57.111Z,25.44
2018-09-10T12:00:57.203Z,25.44
2018-09-10T12:01:57.433Z,25.5
2018-09-10T12:02:57.068Z,25.44
2018-09-10T12:03:57.161Z,25.5
2018-09-10T12:04:57.171Z,25.5
2018-09-10T12:05:57.234Z,25.5
2018-09-10T12:06:57.129Z,25.44
2018-09-10T12:07:57.285Z,25.44
2018-09-10T12:08:57.289Z,25.44
2018-09-10T12:09:57.121Z,25.5
2018-09-10T12:10:57.156Z,25.5
2018-09-10T12:11:57.309Z,25.5
2018-09-10T12:12:57.168Z,25.56
2018-09-10T12:13:58.027Z,25.56
2018-09-10T12:14:57.162Z,25.62
2018-09-10T12:15:57.068Z,25.69
2018-09-10T12:16:57.139Z,25.75
2018-09-10T12:17:57.179Z,25.69
2018-09-10T12:18:57.169Z,25.81
2018-09-10T12:19:57.173Z,25.81
2018-09-10T12:20:57.127Z,25.88
2018-09-10T12:21:57.207Z,25.88
2018-09-10T12:22:57.397Z,25.94
2018-09-10T12:23:57.550Z,25.94
2018-09-10T12:24:57.129Z,26
2018-09-10T12:25:57.177Z,26
2018-09-10T12:26:57.104Z,26.06
2018-09-10T12:27:57.249Z,26.12
2018-09-10T12:28:57.172Z,26.06
2018-09-10T12:29:57.160Z,26.06
2018-09-10T12:30:57.387Z,26.12
2018-09-10T12:31:57.475Z,26.12
2018-09-10T12:32:57.204Z,26.19
2018-09-10T12:33:57.061Z,26.19
2018-09-10T12:34:57.131Z,26.25
2018-09-10T12:35:57.099Z,26.25
2018-09-10T12:36:57.131Z,26.31
2018-09-10T12:37:57.082Z,26.31
2018-09-10T12:38:57.707Z,26.31
2018-09-10T12:39:57.396Z,26.31
2018-09-10T12:40:57.267Z,26.37
2018-09-10T12:41:57.166Z,26.37
2018-09-10T12:42:57.075Z,26.37
2018-09-10T12:43:57.111Z,26.37
2018-09-10T12:44:57.656Z,26.37
2018-09-10T12:45:57.241Z,26.44
2018-09-10T12:46:57.290Z,26.44
2018-09-10T12:47:57.247Z,26.44
2018-09-10T12:48:57.460Z,26.5
2018-09-10T12:49:57.297Z,26.5
2018-09-10T12:50:57.063Z,26.56
2018-09-10T12:51:57.116Z,26.56
2018-09-10T12:52:57.058Z,26.56
2018-09-10T12:53:57.160Z,26.62
2018-09-10T12:54:57.091Z,26.69
2018-09-10T12:55:57.200Z,26.69
2018-09-10T12:56:57.788Z,26.75
2018-09-10T12:57:57.196Z,26.81
2018-09-10T12:58:57.973Z,26.81
2018-09-10T12:59:57.072Z,26.94